Create Custom Reports and Graphics: Custom Report

Modesto Jr College

Current Conditions

10/23/19 1:15 PM (-07:00)
Updated Every 15 Minutes
Temp 76.6 °F   1.5
RH 36 %   1
Dew Pt 47.9 °F   0.2
Wind Spd 9.1 mph
Wind Dir WNW | 302 °
Wind Gust 16.0 mph   5.7
Latest Rain 0.00 In
Daily Rain 0.00 In
Daily Min Temp 47.5 °F   4.0
Daily Max Temp 77.2 °F   1.5

Last 24 Hours

Modesto Jr College

15 Minute Data | America/Los_Angeles
as of 10/23/19 1:24 PM PDT
Date & Time Temp (°F) RH (%) Dew Pt (°F) Wind Spd (mph) Wind Dir (°) Wind Gust (mph) Latest Rain (In) Daily Rain (In) Daily Min Temp (°F) Daily Max Temp (°F)
10/23/19 - 1315 76.6 36 47.9 9.1 WNW | 302 16.0 0.00 0.00 47.5 77.2
10/23/19 - 1300 76.8 36 47.8 8.9 WNW | 285 15.1 0.00 0.00 47.5 77.2
10/23/19 - 1245 76.3 37 48.2 8.3 WNW | 294 14.7 0.00 0.00 47.5 76.7
10/23/19 - 1230 76.0 37 47.9 8.0 WNW | 294 13.2 0.00 0.00 47.5 76.6
10/23/19 - 1215 75.6 38 47.9 9.2 WNW | 282 16.0 0.00 0.00 47.5 75.9
10/23/19 - 1200 75.2 40 49.2 7.4 WNW | 285 13.4 0.00 0.00 47.5 75.9
10/23/19 - 1145 73.9 41 49.0 7.1 WNW | 293 14.7 0.00 0.00 47.5 75.0
10/23/19 - 1130 73.1 42 48.9 7.6 WNW | 302 12.3 0.00 0.00 47.5 73.9
10/23/19 - 1115 72.6 43 48.9 6.7 NW | 306 11.4 0.00 0.00 47.5 73.0
10/23/19 - 1100 71.9 44 48.8 6.9 WNW | 299 12.1 0.00 0.00 47.5 72.6
10/23/19 - 1045 71.2 45 48.9 6.1 NW | 306 10.3 0.00 0.00 47.5 71.8
10/23/19 - 1030 70.6 47 49.6 6.3 WNW | 296 11.0 0.00 0.00 47.5 71.0
10/23/19 - 1015 70.1 49 49.9 6.0 WNW | 294 10.1 0.00 0.00 47.5 70.5
10/23/19 - 1000 69.2 50 49.7 5.4 WNW | 292 8.6 0.00 0.00 47.5 70.1
10/23/19 - 0945 67.7 52 49.3 3.7 WNW | 291 7.2 0.00 0.00 47.5 69.6
10/23/19 - 0930 65.1 56 49.2 4.2 NW | 318 6.4 0.00 0.00 47.5 65.8
10/23/19 - 0915 63.5 59 49.0 3.4 NW | 316 7.9 0.00 0.00 47.5 64.6
10/23/19 - 0900 60.4 67 49.2 2.7 NNW | 327 5.3 0.00 0.00 47.5 62.3
10/23/19 - 0845 58.0 72 49.2 2.6 NNW | 331 4.8 0.00 0.00 47.5 59.1
10/23/19 - 0830 57.2 75 49.3 1.5 WNW | 292 3.7 0.00 0.00 47.5 58.0
10/23/19 - 0815 55.2 80 49.0 0.7 WNW | 302 2.4 0.00 0.00 47.5 56.0
10/23/19 - 0800 52.1 85 47.8 1.7 WNW | 301 4.6 0.00 0.00 47.5 54.8
10/23/19 - 0745 49.8 89 46.8 2.0 NW | 318 5.3 0.00 0.00 47.5 54.8
10/23/19 - 0730 49.0 91 46.5 0.5 N | 356 1.5 0.00 0.00 47.5 54.8
10/23/19 - 0715 48.0 90 45.2 0.5 NW | 320 2.4 0.00 0.00 47.5 54.8
10/23/19 - 0700 48.4 88 45.1 1.0 NW | 306 2.4 0.00 0.00 47.8 54.8
10/23/19 - 0645 48.8 87 45.1 1.4 WSW | 258 2.4 0.00 0.00 48.0 54.8
10/23/19 - 0630 49.7 85 45.4 0.5 WNW | 299 2.0 0.00 0.00 48.5 54.8
10/23/19 - 0615 50.8 84 46.2 1.3 NW | 320 2.6 0.00 0.00 48.5 54.8
10/23/19 - 0600 50.4 87 46.7 2.2 NW | 306 4.4 0.00 0.00 48.5 54.8
10/23/19 - 0545 50.0 89 46.8 1.2 NNW | 335 2.0 0.00 0.00 48.5 54.8
10/23/19 - 0530 49.9 89 46.9 0.0 NNW | 346 0.9 0.00 0.00 48.5 54.8
10/23/19 - 0515 49.2 90 46.3 0.1 NNW | 346 0.9 0.00 0.00 48.5 54.8
10/23/19 - 0500 49.2 89 46.0 0.1 NNW | 346 1.1 0.00 0.00 48.8 54.8
10/23/19 - 0445 49.5 89 46.4 0.2 N | 349 1.3 0.00 0.00 48.9 54.8
10/23/19 - 0430 49.2 88 45.9 0.0 W | 272 1.3 0.00 0.00 48.9 54.8
10/23/19 - 0415 49.6 87 45.9 1.1 WSW | 250 3.9 0.00 0.00 49.1 54.8
10/23/19 - 0400 50.1 88 46.6 1.3 N | 5 3.9 0.00 0.00 49.1 54.8
10/23/19 - 0345 49.9 88 46.4 0.9 NNE | 23 2.6 0.00 0.00 49.1 54.8
10/23/19 - 0330 49.9 87 46.1 0.2 S | 188 1.3 0.00 0.00 49.3 54.8
10/23/19 - 0315 50.2 86 46.3 0.9 W | 274 2.6 0.00 0.00 49.8 54.8
10/23/19 - 0300 50.5 87 46.6 0.5 NW | 321 2.2 0.00 0.00 50.0 54.8
10/23/19 - 0245 50.6 84 45.8 0.1 SW | 215 1.1 0.00 0.00 50.0 54.8
10/23/19 - 0230 51.6 84 46.8 0.3 N | 351 0.9 0.00 0.00 51.0 54.8
10/23/19 - 0215 52.0 80 46.0 0.1 NNW | 342 1.3 0.00 0.00 51.3 54.8
10/23/19 - 0200 53.7 78 47.1 1.7 S | 190 3.5 0.00 0.00 51.3 54.8
10/23/19 - 0145 52.1 82 46.8 1.5 SW | 232 3.3 0.00 0.00 51.3 54.8
10/23/19 - 0130 52.8 79 46.7 1.4 WSW | 240 3.5 0.00 0.00 52.3 54.8
10/23/19 - 0115 53.9 76 46.6 0.0 W | 277 1.8 0.00 0.00 53.3 54.8
10/23/19 - 0100 55.6 73 47.3 0.3 S | 176 1.1 0.00 0.00 43.5 81.5
10/23/19 - 0045 56.3 73 47.9 0.7 NE | 43 2.0 0.00 0.00 43.5 81.5
10/23/19 - 0030 55.4 75 47.6 0.6 ENE | 60 2.2 0.00 0.00 43.5 81.5
10/23/19 - 0015 53.8 79 47.4 1.9 NE | 41 3.3 0.00 0.00 43.5 81.5
10/23/19 - 0000 53.8 78 47.0 1.2 NNE | 25 2.4 0.00 0.00 43.5 81.5
10/22/19 - 2345 54.0 77 47.0 1.2 NNE | 27 1.8 0.00 0.00 43.5 81.5
10/22/19 - 2330 54.4 77 47.4 0.7 NE | 51 1.5 0.00 0.00 43.5 81.5
10/22/19 - 2315 54.6 78 47.8 0.3 N | 4 1.8 0.00 0.00 43.5 81.5
10/22/19 - 2300 54.6 78 47.9 0.0 NNW | 345 0.7 0.00 0.00 43.5 81.5
10/22/19 - 2245 54.9 79 48.5 0.0 NE | 43 0.9 0.00 0.00 43.5 81.5
10/22/19 - 2230 55.0 79 48.5 0.1 NNE | 18 0.9 0.00 0.00 43.5 81.5
10/22/19 - 2215 55.8 76 48.5 0.0 NNE | 18 0.4 0.00 0.00 43.5 81.5
10/22/19 - 2200 56.2 76 48.9 0.4 NNE | 18 1.1 0.00 0.00 43.5 81.5
10/22/19 - 2145 56.4 75 48.6 0.0 N | 0 0.0 0.00 0.00 43.5 81.5
10/22/19 - 2130 57.5 73 49.1 0.4 NNE | 27 1.3 0.00 0.00 43.5 81.5
10/22/19 - 2115 57.3 76 49.8 0.2 ENE | 67 0.9 0.00 0.00 43.5 81.5
10/22/19 - 2100 57.3 76 49.8 0.0 NE | 36 0.9 0.00 0.00 43.5 81.5
10/22/19 - 2045 57.9 74 49.8 0.0 S | 188 0.7 0.00 0.00 43.5 81.5
10/22/19 - 2030 58.4 74 50.1 0.0 N | 0 0.0 0.00 0.00 43.5 81.5
10/22/19 - 2015 59.4 71 50.1 0.0 N | 0 0.0 0.00 0.00 43.5 81.5
10/22/19 - 2000 60.5 69 50.2 0.0 NW | 319 0.9 0.00 0.00 43.5 81.5
10/22/19 - 1945 60.3 69 50.3 0.0 N | 0 0.0 0.00 0.00 43.5 81.5
10/22/19 - 1930 61.6 67 50.3 0.6 N | 7 1.8 0.00 0.00 43.5 81.5
10/22/19 - 1915 63.6 63 50.6 0.4 NNW | 341 1.3 0.00 0.00 43.5 81.5
10/22/19 - 1900 65.3 58 50.3 0.0 WNW | 301 0.7 0.00 0.00 43.5 81.5
10/22/19 - 1845 67.5 53 49.9 1.8 WSW | 246 3.3 0.00 0.00 43.5 81.5
10/22/19 - 1830 70.9 46 49.4 1.5 WSW | 258 2.4 0.00 0.00 43.5 81.5
10/22/19 - 1815 74.0 41 49.1 2.1 WSW | 247 3.1 0.00 0.00 43.5 81.5
10/22/19 - 1800 76.6 37 48.6 2.3 W | 270 3.9 0.00 0.00 43.5 81.5
10/22/19 - 1745 78.2 34 47.9 2.6 W | 270 3.9 0.00 0.00 43.5 81.5
10/22/19 - 1730 79.2 33 48.0 3.0 W | 275 4.8 0.00 0.00 43.5 81.5
10/22/19 - 1715 79.7 32 47.2 3.7 WNW | 290 6.6 0.00 0.00 43.5 81.5
10/22/19 - 1700 80.3 31 47.2 3.8 WNW | 283 6.1 0.00 0.00 43.5 81.5
10/22/19 - 1645 80.1 32 47.2 3.8 WNW | 300 6.4 0.00 0.00 43.5 81.5
10/22/19 - 1630 80.2 31 46.6 5.6 NW | 313 8.6 0.00 0.00 43.5 81.5
10/22/19 - 1615 80.4 30 45.9 6.5 WNW | 301 12.5 0.00 0.00 43.5 81.5
10/22/19 - 1600 80.7 31 46.9 5.9 W | 280 11.4 0.00 0.00 43.5 81.5
10/22/19 - 1545 80.9 30 46.8 6.2 WNW | 286 10.3 0.00 0.00 43.5 81.5
10/22/19 - 1530 81.1 30 47.0 5.8 W | 279 9.6 0.00 0.00 43.5 81.5
10/22/19 - 1515 81.1 30 46.6 5.0 WNW | 287 9.0 0.00 0.00 43.5 81.5
10/22/19 - 1500 80.5 30 46.2 5.8 W | 281 10.5 0.00 0.00 43.5 81.2
10/22/19 - 1445 80.2 32 47.4 5.8 WNW | 299 11.0 0.00 0.00 43.5 81.1
10/22/19 - 1430 80.2 32 47.5 5.2 WNW | 288 9.4 0.00 0.00 43.5 81.1
10/22/19 - 1415 80.1 31 47.1 5.1 WNW | 296 9.6 0.00 0.00 43.5 80.9
10/22/19 - 1400 80.1 32 47.1 5.1 WNW | 283 10.1 0.00 0.00 43.5 80.9
10/22/19 - 1345 79.7 32 47.5 5.4 WNW | 288 10.3 0.00 0.00 43.5 80.6
10/22/19 - 1330 77.9 33 46.8 6.3 NW | 315 11.0 0.00 0.00 43.5 78.8
10/22/19 - 1315 78.0 35 48.0 5.0 WNW | 300 10.3 0.00 0.00 43.5 78.7
Max 81.1 91 50.6 9.2 - 16.0 0.00 0.00 53.3 81.5
Avg 62.9 63 47.8 2.7 - 5.1 0.00 - - -
Min 48.0 30 45.1 0.0 - 0.0 0.00 0.00 43.5 54.8
Total - - - - - - 0.00 - - -

Last 7 Days

Modesto Jr College

Daily Data | America/Los_Angeles
as of 10/23/19 1:24 PM PDT
Date Daily ETo (in)
10/22/19 0.11
10/21/19 0.11
10/20/19 0.13
10/19/19 0.10
10/18/19 0.11
10/17/19 0.14
10/16/19 0.08
Max 0.14
Min 0.08